Terminal Aerodrome Forecast
Issued by NWS

Current Version | Previous Version | Graphics & Text | Print | Product List | Glossary On
Versions: 1 2 3 4 5 6 7 8 9 10 11 12 13 14 15 16 17 18 19 20 21 22 23 24 25 26 27 28
000
FTUS41 KRLX 192300
TAFCKB
TAF
KCKB 192323Z 2000/2024 13003KT 6SM BR SCT030 BKN040
      TEMPO 2001/2005 4SM -SHRA BR BKN030
     FM200500 00000KT 4SM BR SCT020 BKN030
      TEMPO 2006/2007 2SM BR BKN020
     FM200700 00000KT 2SM BR SCT001 BKN015
     FM201200 00000KT 3SM BR BKN020
     FM201400 15002KT P6SM BKN025
     FM201600 19005KT P6SM BKN040
     FM202300 00000KT P6SM BKN045=

USA.gov is the U.S. government's official web portal to all federal, state and local government web resources and services.